createdAt,value
2023-05-07T00:01:13.036Z,7.80
2023-05-07T00:03:41.113Z,4.37
2023-05-07T00:06:09.294Z,4.77
2023-05-07T00:08:37.306Z,6.03
2023-05-07T00:11:06.868Z,5.20
2023-05-07T00:13:36.624Z,5.13
2023-05-07T00:16:04.882Z,5.97
2023-05-07T00:18:33.114Z,7.17
2023-05-07T00:21:01.136Z,7.10
2023-05-07T00:23:29.190Z,5.20
2023-05-07T00:25:57.817Z,5.63
2023-05-07T00:28:27.319Z,5.47
2023-05-07T00:30:55.322Z,5.40
2023-05-07T00:33:23.381Z,4.97
2023-05-07T00:35:51.612Z,5.00
2023-05-07T00:38:19.947Z,5.30
2023-05-07T00:40:47.961Z,6.50
2023-05-07T00:43:16.091Z,5.43
2023-05-07T00:45:45.513Z,5.40
2023-05-07T00:48:13.624Z,6.60
2023-05-07T00:50:41.700Z,5.53
2023-05-07T00:53:09.731Z,4.63
2023-05-07T00:55:38.116Z,7.00
2023-05-07T00:58:06.732Z,5.53
2023-05-07T01:00:36.881Z,6.33
2023-05-07T01:03:07.162Z,6.60
2023-05-07T01:05:35.954Z,5.87
2023-05-07T01:08:04.812Z,5.20
2023-05-07T01:10:32.774Z,5.73
2023-05-07T01:13:01.223Z,5.33
2023-05-07T01:15:29.438Z,6.13
2023-05-07T01:17:58.141Z,6.00
2023-05-07T01:20:34.356Z,5.07
2023-05-07T01:23:05.583Z,5.33
2023-05-07T01:25:33.767Z,5.10
2023-05-07T01:28:03.522Z,4.70
2023-05-07T01:30:36.324Z,5.33
2023-05-07T01:33:10.724Z,5.20
2023-05-07T01:35:41.423Z,4.80
2023-05-07T01:38:11.384Z,5.30
2023-05-07T01:40:39.625Z,4.97
2023-05-07T01:43:08.093Z,4.70
2023-05-07T01:45:39.655Z,4.87
2023-05-07T01:48:08.459Z,7.40
2023-05-07T01:50:37.064Z,5.03
2023-05-07T01:53:05.124Z,5.17
2023-05-07T01:55:34.715Z,5.53
2023-05-07T01:58:02.975Z,5.50
2023-05-07T02:00:31.045Z,5.60
2023-05-07T02:02:59.779Z,6.10
2023-05-07T02:05:39.429Z,5.40
2023-05-07T02:08:27.794Z,6.10
2023-05-07T02:10:58.065Z,5.83
2023-05-07T02:13:28.729Z,6.83
2023-05-07T02:15:56.929Z,6.90
2023-05-07T02:18:26.031Z,7.10
2023-05-07T02:20:54.060Z,9.23
2023-05-07T02:23:22.346Z,6.97
2023-05-07T02:25:50.765Z,6.33
2023-05-07T02:28:20.377Z,7.13
2023-05-07T02:31:04.553Z,10.00
2023-05-07T02:33:33.068Z,8.23
2023-05-07T02:36:07.942Z,8.07
2023-05-07T02:38:37.546Z,8.27
2023-05-07T02:41:06.243Z,7.70
2023-05-07T02:43:35.760Z,8.93
2023-05-07T02:46:04.867Z,8.23
2023-05-07T02:48:33.944Z,7.57
2023-05-07T02:51:02.366Z,8.67
2023-05-07T02:53:31.854Z,8.37
2023-05-07T02:56:00.772Z,8.47
2023-05-07T02:58:31.444Z,8.13
2023-05-07T03:01:03.461Z,9.40
2023-05-07T03:03:41.727Z,8.80
2023-05-07T03:06:09.999Z,8.07
2023-05-07T03:08:38.548Z,8.63
2023-05-07T03:11:06.570Z,7.80
2023-05-07T03:13:34.681Z,9.40
2023-05-07T03:16:04.159Z,9.80
2023-05-07T03:18:32.164Z,11.70
2023-05-07T03:21:00.302Z,9.07
2023-05-07T03:23:28.262Z,11.50
2023-05-07T03:25:56.238Z,8.87
2023-05-07T03:28:24.628Z,10.67
2023-05-07T03:30:58.044Z,12.83
2023-05-07T03:33:28.389Z,12.40
2023-05-07T03:35:56.806Z,10.73
2023-05-07T03:38:26.904Z,10.93
2023-05-07T03:40:55.206Z,10.80
2023-05-07T03:43:23.379Z,9.17
2023-05-07T03:45:58.972Z,8.77
2023-05-07T03:48:30.508Z,10.37
2023-05-07T03:51:00.917Z,9.73
2023-05-07T03:53:33.143Z,9.30
2023-05-07T03:56:01.394Z,9.70
2023-05-07T03:58:32.400Z,9.17
2023-05-07T04:01:05.852Z,10.07
2023-05-07T04:03:35.503Z,9.40
2023-05-07T04:06:03.777Z,8.07
2023-05-07T04:08:33.623Z,8.37
2023-05-07T04:11:01.770Z,9.60
2023-05-07T04:13:32.918Z,10.07
2023-05-07T04:16:04.272Z,9.47
2023-05-07T04:18:34.992Z,9.50
2023-05-07T04:21:02.992Z,10.20
2023-05-07T04:23:30.943Z,9.90
2023-05-07T04:26:02.074Z,10.23
2023-05-07T04:28:36.109Z,10.43
2023-05-07T04:31:04.182Z,10.70
2023-05-07T04:33:35.908Z,10.43
2023-05-07T04:36:05.116Z,11.27
2023-05-07T04:38:38.322Z,11.37
2023-05-07T04:41:07.733Z,12.20
2023-05-07T04:43:41.099Z,11.43
2023-05-07T04:46:09.191Z,12.10
2023-05-07T04:48:38.815Z,10.33
2023-05-07T04:51:08.462Z,11.67
2023-05-07T04:53:36.685Z,11.27
2023-05-07T04:56:05.110Z,11.63
2023-05-07T04:58:39.622Z,13.00
2023-05-07T05:01:08.336Z,12.37
2023-05-07T05:03:36.571Z,13.00
2023-05-07T05:06:06.554Z,12.80
2023-05-07T05:08:36.061Z,11.90
2023-05-07T05:11:05.758Z,11.10
2023-05-07T05:13:36.158Z,11.30
2023-05-07T05:16:10.967Z,12.10
2023-05-07T05:18:39.860Z,11.63
2023-05-07T05:21:09.466Z,11.07
2023-05-07T05:23:37.867Z,11.30
2023-05-07T05:26:06.174Z,10.80
2023-05-07T05:28:35.581Z,10.67
2023-05-07T05:31:04.817Z,9.60
2023-05-07T05:33:36.514Z,9.37
2023-05-07T05:36:07.508Z,9.37
2023-05-07T05:38:37.324Z,9.17
2023-05-07T05:41:06.266Z,10.33
2023-05-07T05:43:34.568Z,9.23
2023-05-07T05:46:02.760Z,9.23
2023-05-07T05:48:31.911Z,8.53
2023-05-07T05:51:02.429Z,9.20
2023-05-07T05:53:30.961Z,8.37
2023-05-07T05:56:01.365Z,8.97
2023-05-07T05:58:30.722Z,10.27
2023-05-07T06:01:03.705Z,9.23
2023-05-07T06:03:33.544Z,8.23
2023-05-07T06:06:05.297Z,6.23
2023-05-07T06:08:33.950Z,6.17
2023-05-07T06:11:04.860Z,8.03
2023-05-07T06:13:36.373Z,6.10
2023-05-07T06:16:04.627Z,6.60
2023-05-07T06:18:32.753Z,7.33
2023-05-07T06:21:01.243Z,5.67
2023-05-07T06:23:32.729Z,5.17
2023-05-07T06:26:01.994Z,6.73
2023-05-07T06:28:37.708Z,6.00
2023-05-07T06:31:16.902Z,6.33
2023-05-07T06:33:49.830Z,6.63
2023-05-07T06:36:18.060Z,4.60
2023-05-07T06:38:46.881Z,6.27
2023-05-07T06:41:14.986Z,4.50
2023-05-07T06:43:45.409Z,4.97
2023-05-07T06:46:33.140Z,4.57
2023-05-07T06:49:15.719Z,4.77
2023-05-07T06:51:45.618Z,5.30
2023-05-07T06:54:13.896Z,4.73
2023-05-07T06:56:43.857Z,5.83
2023-05-07T06:59:13.363Z,4.30
2023-05-07T07:01:42.915Z,5.10
2023-05-07T07:04:12.528Z,3.97
2023-05-07T07:06:43.300Z,5.10
2023-05-07T07:09:14.441Z,4.47
2023-05-07T07:11:43.137Z,4.20
2023-05-07T07:14:11.189Z,5.13
2023-05-07T07:16:48.614Z,5.00
2023-05-07T07:19:18.877Z,6.00
2023-05-07T07:21:49.148Z,4.43
2023-05-07T07:24:22.809Z,3.33
2023-05-07T07:26:56.481Z,4.00
2023-05-07T07:29:27.687Z,3.20
2023-05-07T07:31:57.738Z,3.03
2023-05-07T07:34:32.964Z,3.93
2023-05-07T07:37:07.208Z,3.70
2023-05-07T07:39:38.582Z,3.23
2023-05-07T07:42:07.761Z,2.97
2023-05-07T07:44:36.036Z,4.97
2023-05-07T07:47:10.073Z,4.00
2023-05-07T07:49:38.511Z,2.93
2023-05-07T07:52:08.508Z,3.30
2023-05-07T07:54:38.463Z,2.90
2023-05-07T07:57:08.696Z,3.33
2023-05-07T07:59:39.473Z,6.73
2023-05-07T08:02:10.048Z,3.87
2023-05-07T08:04:39.143Z,3.23
2023-05-07T08:07:09.098Z,2.80
2023-05-07T08:09:41.212Z,3.03
2023-05-07T08:12:10.341Z,3.63
2023-05-07T08:14:39.845Z,2.93
2023-05-07T08:17:11.555Z,3.80
2023-05-07T08:19:40.215Z,3.17
2023-05-07T08:22:10.666Z,3.17
2023-05-07T08:24:39.282Z,3.13
2023-05-07T08:27:07.616Z,2.33
2023-05-07T08:29:36.679Z,3.33
2023-05-07T08:32:05.213Z,3.80
2023-05-07T08:34:34.735Z,3.70
2023-05-07T08:37:05.815Z,3.13
2023-05-07T08:39:34.443Z,2.60
2023-05-07T08:42:05.043Z,3.43
2023-05-07T08:44:36.398Z,3.63
2023-05-07T08:47:04.612Z,4.67
2023-05-07T08:49:35.862Z,3.37
2023-05-07T08:52:04.313Z,2.27
2023-05-07T08:54:33.379Z,2.03
2023-05-07T08:57:02.293Z,2.30
2023-05-07T08:59:31.073Z,2.37
2023-05-07T09:01:59.674Z,4.37
2023-05-07T09:04:28.629Z,2.37
2023-05-07T09:07:05.170Z,3.10
2023-05-07T09:09:35.084Z,3.20
2023-05-07T09:12:07.543Z,3.07
2023-05-07T09:14:37.724Z,3.70
2023-05-07T09:17:06.356Z,2.27
2023-05-07T09:19:35.369Z,2.23
2023-05-07T09:22:15.618Z,1.83
2023-05-07T09:24:55.790Z,4.07
2023-05-07T09:27:31.199Z,4.30
2023-05-07T09:30:03.699Z,4.23
2023-05-07T09:32:33.297Z,1.80
2023-05-07T09:35:04.251Z,2.17
2023-05-07T09:37:38.399Z,3.23
2023-05-07T09:40:08.569Z,2.03
2023-05-07T09:42:37.212Z,3.27
2023-05-07T09:45:08.503Z,2.03
2023-05-07T09:47:41.068Z,1.87
2023-05-07T09:50:11.504Z,1.87
2023-05-07T09:52:43.354Z,3.93
2023-05-07T09:55:13.918Z,1.60
2023-05-07T09:57:43.233Z,2.97
2023-05-07T19:22:46.199Z,9.47
2023-05-07T19:25:15.055Z,10.77
2023-05-07T19:27:43.084Z,11.87
2023-05-07T19:30:12.281Z,9.73
2023-05-07T19:32:42.553Z,11.30
2023-05-07T19:35:11.551Z,9.30
2023-05-07T19:37:40.552Z,8.97
2023-05-07T19:40:13.212Z,11.63
2023-05-07T19:42:41.780Z,9.20
2023-05-07T19:45:16.599Z,11.97
2023-05-07T19:47:45.028Z,12.87
2023-05-07T19:50:13.533Z,12.07
2023-05-07T19:52:43.828Z,10.43
2023-05-07T19:55:14.032Z,11.60
2023-05-07T19:57:42.502Z,10.30
2023-05-07T20:00:15.174Z,10.37
2023-05-07T20:02:43.509Z,11.93
2023-05-07T20:05:55.860Z,10.40
2023-05-07T20:08:33.515Z,10.00
2023-05-07T20:11:03.331Z,11.13
2023-05-07T20:13:31.636Z,9.33
2023-05-07T20:16:00.180Z,9.60
2023-05-07T20:18:33.413Z,7.83
2023-05-07T20:21:01.566Z,8.07
2023-05-07T20:23:30.224Z,8.20
2023-05-07T20:26:02.345Z,8.03
2023-05-07T20:28:30.730Z,7.80
2023-05-07T20:31:03.518Z,8.87
2023-05-07T20:34:07.783Z,8.67
2023-05-07T20:36:49.195Z,7.80
2023-05-07T20:39:52.621Z,7.90
2023-05-07T20:42:34.893Z,7.07
2023-05-07T20:45:52.538Z,6.10
2023-05-07T20:53:19.223Z,7.03
2023-05-07T20:55:56.322Z,8.83
2023-05-07T20:58:39.171Z,6.80
2023-05-07T21:01:41.040Z,9.00
2023-05-07T21:04:09.817Z,8.93
2023-05-07T21:10:11.633Z,5.30
2023-05-07T21:12:40.605Z,5.40
2023-05-07T21:15:12.140Z,4.87
2023-05-07T21:17:40.389Z,6.90
2023-05-07T21:20:15.955Z,5.40
2023-05-07T21:23:32.424Z,5.00
2023-05-07T21:26:09.526Z,5.13
2023-05-07T21:28:51.475Z,5.80
2023-05-07T21:31:30.179Z,5.30
2023-05-07T21:33:58.656Z,6.73
2023-05-07T21:36:35.847Z,5.87
2023-05-07T21:39:04.821Z,8.87
2023-05-07T21:41:33.172Z,5.00
2023-05-07T21:44:11.301Z,4.53
2023-05-07T21:46:41.111Z,7.40
2023-05-07T21:49:09.399Z,5.23
2023-05-07T21:51:37.676Z,6.20
2023-05-07T21:54:06.812Z,5.60
2023-05-07T21:56:35.046Z,4.50
2023-05-07T21:59:03.239Z,6.40
2023-05-07T22:01:31.580Z,5.57
2023-05-07T22:04:01.269Z,5.67
2023-05-07T22:06:29.643Z,6.43
2023-05-07T22:08:57.774Z,5.53
2023-05-07T22:11:25.939Z,8.13
2023-05-07T22:13:53.991Z,7.43
2023-05-07T22:16:22.090Z,7.47
2023-05-07T22:18:50.533Z,6.97
2023-05-07T22:21:20.218Z,7.00
2023-05-07T22:23:48.415Z,9.37
2023-05-07T22:26:16.743Z,11.13
2023-05-07T22:28:44.872Z,7.67
2023-05-07T22:31:13.086Z,8.17
2023-05-07T22:33:41.339Z,8.77
2023-05-07T22:36:09.721Z,11.00
2023-05-07T22:38:39.364Z,8.63
2023-05-07T22:41:07.517Z,9.20
2023-05-07T22:43:35.725Z,8.77
2023-05-07T22:46:03.997Z,9.60
2023-05-07T22:48:33.913Z,11.03
2023-05-07T22:51:02.150Z,9.53
2023-05-07T22:53:30.176Z,10.17
2023-05-07T22:55:59.587Z,14.30
2023-05-07T22:58:27.692Z,12.67
2023-05-07T23:00:55.884Z,12.23
2023-05-07T23:03:24.178Z,11.67
2023-05-07T23:05:53.718Z,12.47
2023-05-07T23:08:21.893Z,12.43
2023-05-07T23:10:49.976Z,11.83
2023-05-07T23:13:19.471Z,11.63
2023-05-07T23:15:47.564Z,12.63
2023-05-07T23:18:15.744Z,13.20
2023-05-07T23:20:44.183Z,12.00
2023-05-07T23:23:12.457Z,12.93
2023-05-07T23:25:40.959Z,10.70
2023-05-07T23:28:09.161Z,11.00
2023-05-07T23:30:38.947Z,12.57
2023-05-07T23:33:07.317Z,11.20
2023-05-07T23:35:35.469Z,11.37
2023-05-07T23:38:03.564Z,11.73
2023-05-07T23:40:31.687Z,11.07
2023-05-07T23:42:59.862Z,11.70
2023-05-07T23:45:27.950Z,10.50
2023-05-07T23:47:57.404Z,11.30
2023-05-07T23:50:25.518Z,11.50
2023-05-07T23:52:53.646Z,12.40
2023-05-07T23:55:22.061Z,10.93
2023-05-07T23:57:50.221Z,11.80
